Time;durP1;ratioP1;P1;durP2;ratioP2;P2;SDS_P1;SDS_P2;PMS_P1;PMS_P2;Temp;Humidity;BMP_temperature;BMP_pressure;BME280_temperature;BME280_humidity;BME280_pressure;Samples;Min_cycle;Max_cycle;Signal;HPM_P1;HPM_P2
2022/11/23 00:01:32;;;;;;;12.00;3.55;;;9.20;94.90;;;;;;5116329;28;20024;-73
2022/11/23 00:04:04;;;;;;;8.88;3.17;;;9.20;94.80;;;;;;5116308;28;20024;-73
2022/11/23 00:06:29;;;;;;;4.40;2.22;;;9.20;94.80;;;;;;5116228;28;20048;-74
2022/11/23 00:08:55;;;;;;;5.97;2.55;;;9.20;94.80;;;;;;5116144;28;20410;-74
2022/11/23 00:11:22;;;;;;;8.50;3.25;;;9.20;94.80;;;;;;5115039;28;20036;-74
2022/11/23 00:13:49;;;;;;;7.47;3.00;;;9.20;94.80;;;;;;5116141;28;20100;-74
2022/11/23 00:16:17;;;;;;;8.43;3.40;;;9.30;94.80;;;;;;5116063;28;20087;-74
2022/11/23 00:18:43;;;;;;;8.98;2.95;;;9.30;95.10;;;;;;5116022;28;20024;-74
2022/11/23 00:21:12;;;;;;;5.93;2.95;;;9.30;94.80;;;;;;5115988;28;20391;-73
2022/11/23 00:23:38;;;;;;;9.02;3.13;;;9.30;94.70;;;;;;5114892;28;20023;-74
2022/11/23 00:26:04;;;;;;;7.53;2.70;;;9.20;94.70;;;;;;5115787;28;20035;-74
2022/11/23 00:28:30;;;;;;;10.35;3.08;;;9.30;94.70;;;;;;5114794;28;20088;-73
2022/11/23 00:30:56;;;;;;;8.85;3.50;;;9.30;94.70;;;;;;5115758;28;20084;-73
2022/11/23 00:33:22;;;;;;;6.00;2.80;;;9.30;94.70;;;;;;5115733;28;20024;-74
2022/11/23 00:35:57;;;;;;;11.48;3.50;;;9.30;94.60;;;;;;5115660;28;20076;-73
2022/11/23 00:38:22;;;;;;;11.32;3.50;;;9.30;94.60;;;;;;5114749;28;20024;-74
2022/11/23 00:40:48;;;;;;;8.82;3.10;;;9.30;94.50;;;;;;5114666;28;20087;-74
2022/11/23 00:43:13;;;;;;;9.60;3.20;;;9.30;94.40;;;;;;5115549;28;20042;-74
2022/11/23 00:45:39;;;;;;;8.07;3.40;;;9.30;94.30;;;;;;5114429;28;20035;-74
2022/11/23 00:48:05;;;;;;;8.70;3.40;;;9.30;94.30;;;;;;5097683;28;20036;-74
2022/11/23 00:50:31;;;;;;;8.35;3.00;;;9.30;94.30;;;;;;5115420;28;20084;-74
2022/11/23 00:52:56;;;;;;;7.93;2.92;;;9.30;94.30;;;;;;5114308;28;20092;-74
2022/11/23 00:55:22;;;;;;;6.68;2.50;;;9.30;94.20;;;;;;5114272;28;20024;-73
2022/11/23 00:57:48;;;;;;;7.00;2.63;;;9.30;94.40;;;;;;5097466;28;20047;-74
2022/11/23 01:00:14;;;;;;;8.27;2.45;;;9.30;94.10;;;;;;5115337;28;20087;-74
2022/11/23 01:02:40;;;;;;;9.20;2.33;;;9.30;94.10;;;;;;5115264;28;20020;-73
2022/11/23 01:05:06;;;;;;;8.07;2.90;;;9.40;94.00;;;;;;5115118;28;20046;-74
2022/11/23 01:07:32;;;;;;;9.18;2.60;;;9.40;94.00;;;;;;5114925;28;20028;-74
2022/11/23 01:09:57;;;;;;;4.18;1.70;;;9.40;93.80;;;;;;5114475;28;20020;-74
2022/11/23 01:12:23;;;;;;;8.45;2.38;;;9.40;93.60;;;;;;5114823;28;20059;-74
2022/11/23 01:14:51;;;;;;;5.05;1.83;;;9.40;93.60;;;;;;5114913;28;20035;-74
2022/11/23 01:17:16;;;;;;;9.93;2.00;;;9.40;93.50;;;;;;5114833;28;20032;-74
2022/11/23 01:19:42;;;;;;;4.60;1.92;;;9.40;93.50;;;;;;5114848;28;20028;-74
2022/11/23 01:22:08;;;;;;;4.47;2.25;;;9.40;93.50;;;;;;5114800;28;20077;-74
2022/11/23 01:24:33;;;;;;;6.72;2.25;;;9.40;93.20;;;;;;5113822;28;20032;-74
2022/11/23 01:26:59;;;;;;;7.00;1.85;;;9.40;93.30;;;;;;5114768;28;20032;-74
2022/11/23 01:29:24;;;;;;;4.90;1.50;;;9.50;93.20;;;;;;5114646;28;20028;-74
2022/11/23 01:31:50;;;;;;;6.68;1.95;;;9.40;93.00;;;;;;5114615;28;20109;-74
2022/11/23 01:34:16;;;;;;;5.50;2.47;;;9.40;92.90;;;;;;5114514;28;20039;-74
2022/11/23 01:36:42;;;;;;;8.20;1.75;;;9.40;92.90;;;;;;5114523;28;20028;-74
2022/11/23 01:39:10;;;;;;;8.20;2.10;;;9.50;92.80;;;;;;5114449;28;20024;-74
2022/11/23 01:41:40;;;;;;;6.68;2.00;;;9.50;92.80;;;;;;5114432;28;20080;-74
2022/11/23 01:44:40;;;;;;;6.40;1.70;;;9.40;92.70;;;;;;5114376;28;20031;-74
2022/11/23 01:47:07;;;;;;;7.05;1.67;;;9.40;92.70;;;;;;5070965;28;20052;-74
2022/11/23 01:49:51;;;;;;;5.32;1.90;;;9.50;92.80;;;;;;5114261;28;20043;-74
2022/11/23 01:52:22;;;;;;;3.05;1.35;;;9.50;92.60;;;;;;5114288;28;20028;-74
2022/11/23 01:54:53;;;;;;;4.28;1.58;;;9.50;92.60;;;;;;5114212;28;20360;-74
2022/11/23 01:57:26;;;;;;;4.77;1.40;;;9.50;92.60;;;;;;5114137;28;20024;-74
2022/11/23 01:59:52;;;;;;;;;;;9.50;92.50;;;;;;5114599;28;20024;-73
2022/11/23 02:02:18;;;;;;;6.70;1.70;;;9.50;92.50;;;;;;5114079;28;19915;-74
2022/11/23 02:04:45;;;;;;;7.68;1.58;;;9.50;92.30;;;;;;5113041;28;20039;-74
2022/11/23 02:07:13;;;;;;;6.70;1.40;;;9.50;92.40;;;;;;5113902;28;20029;-74
2022/11/23 02:09:40;;;;;;;5.57;1.58;;;9.50;92.30;;;;;;5113877;28;20022;-74
2022/11/23 02:12:13;;;;;;;5.65;2.00;;;9.50;92.30;;;;;;5113742;28;20055;-74
2022/11/23 02:14:40;;;;;;;11.05;2.00;;;9.40;92.20;;;;;;5113928;28;20035;-74
2022/11/23 02:17:05;;;;;;;7.18;1.85;;;9.50;92.10;;;;;;5113814;28;20035;-74
2022/11/23 02:19:53;;;;;;;5.78;1.50;;;9.50;92.00;;;;;;5113814;28;20032;-74
2022/11/23 02:22:30;;;;;;;4.20;1.38;;;9.50;92.00;;;;;;5113119;28;20030;-74
2022/11/23 02:24:59;;;;;;;6.63;2.05;;;9.40;91.90;;;;;;5113783;28;20020;-74
2022/11/23 02:27:25;;;;;;;7.35;1.90;;;9.50;91.90;;;;;;5113629;28;20028;-74
2022/11/23 02:29:53;;;;;;;6.70;1.25;;;9.50;91.90;;;;;;5113660;28;20036;-74
2022/11/23 02:32:22;;;;;;;10.07;1.58;;;9.50;91.80;;;;;;5113640;28;20036;-74
2022/11/23 02:34:48;;;;;;;8.75;1.60;;;9.50;91.90;;;;;;5113566;28;20018;-74
2022/11/23 02:37:15;;;;;;;8.35;1.52;;;9.50;92.30;;;;;;5113578;28;20028;-74
2022/11/23 02:39:44;;;;;;;6.35;1.42;;;9.50;91.80;;;;;;5112626;28;20028;-74
2022/11/23 02:42:10;;;;;;;7.75;1.50;;;9.50;91.60;;;;;;5113574;28;20106;-74
2022/11/23 02:44:46;;;;;;;6.53;1.50;;;9.50;91.70;;;;;;5095597;28;20028;-74
2022/11/23 02:47:12;;;;;;;8.00;1.90;;;9.50;91.80;;;;;;5113427;28;20028;-74
2022/11/23 02:49:40;;;;;;;4.25;1.42;;;9.50;91.70;;;;;;5095647;28;20050;-74
2022/11/23 02:52:06;;;;;;;4.60;1.52;;;9.50;91.70;;;;;;5113426;28;20019;-74
2022/11/23 02:54:32;;;;;;;5.15;1.85;;;9.50;91.70;;;;;;5112493;28;20050;-74
2022/11/23 02:56:57;;;;;;;10.85;2.08;;;9.50;91.70;;;;;;5112494;28;20031;-74
2022/11/23 02:59:24;;;;;;;4.70;1.50;;;9.60;91.60;;;;;;5112533;28;20076;-74
2022/11/23 03:01:49;;;;;;;5.18;1.98;;;9.60;91.40;;;;;;5113388;28;20032;-74
2022/11/23 03:04:15;;;;;;;7.43;2.20;;;9.60;91.60;;;;;;5095505;28;20043;-74
2022/11/23 03:06:41;;;;;;;5.40;1.63;;;9.60;91.60;;;;;;5112256;28;20043;-74
2022/11/23 03:09:07;;;;;;;7.50;1.73;;;9.60;91.60;;;;;;5113367;28;20028;-74
2022/11/23 03:11:33;;;;;;;4.72;1.40;;;9.50;91.60;;;;;;5113117;28;20041;-74
2022/11/23 03:13:58;;;;;;;6.45;1.77;;;9.60;91.70;;;;;;5113229;28;20024;-74
2022/11/23 03:16:24;;;;;;;6.32;1.70;;;9.60;91.70;;;;;;5112181;28;20020;-74
2022/11/23 03:18:50;;;;;;;7.47;2.10;;;9.60;91.80;;;;;;5112328;28;20031;-74
2022/11/23 03:21:16;;;;;;;4.88;1.63;;;9.60;91.70;;;;;;5113196;28;20043;-74
2022/11/23 03:23:42;;;;;;;9.90;1.85;;;9.60;91.70;;;;;;5113143;28;20050;-74
2022/11/23 03:26:08;;;;;;;9.40;2.05;;;9.60;91.70;;;;;;5113172;28;20078;-74
2022/11/23 03:28:33;;;;;;;3.88;1.70;;;9.60;91.70;;;;;;5113128;28;20045;-74
2022/11/23 03:30:59;;;;;;;7.97;2.10;;;9.60;91.80;;;;;;5095250;28;20379;-74
2022/11/23 03:33:25;;;;;;;6.05;2.03;;;9.60;91.80;;;;;;5114864;28;20028;-74
2022/11/23 03:35:50;;;;;;;4.72;1.85;;;9.60;91.70;;;;;;5116839;28;20032;-74
2022/11/23 03:38:16;;;;;;;10.38;2.35;;;9.60;92.20;;;;;;5115990;28;20073;-74
2022/11/23 03:40:44;;;;;;;6.72;1.85;;;9.60;91.80;;;;;;5116792;28;20039;-74
2022/11/23 03:43:10;;;;;;;8.68;2.13;;;9.60;91.80;;;;;;5115768;28;20024;-74
2022/11/23 03:45:36;;;;;;;4.05;1.80;;;9.60;91.80;;;;;;5115736;28;20028;-74
2022/11/23 03:48:01;;;;;;;7.13;1.90;;;9.60;91.70;;;;;;5115703;28;20063;-74
2022/11/23 03:50:28;;;;;;;4.20;1.85;;;9.60;91.70;;;;;;5116544;28;20031;-74
2022/11/23 03:52:54;;;;;;;10.55;2.30;;;9.60;91.70;;;;;;5116524;28;20506;-74
2022/11/23 03:55:20;;;;;;;8.20;1.85;;;9.60;91.70;;;;;;5115656;28;20027;-74
2022/11/23 03:57:47;;;;;;;9.77;2.08;;;9.60;91.60;;;;;;5116415;28;20036;-74
2022/11/23 04:00:14;;;;;;;3.60;1.48;;;9.60;91.70;;;;;;5116551;28;20024;-74
2022/11/23 04:02:40;;;;;;;8.77;2.42;;;9.60;91.70;;;;;;5115319;28;20123;-74
2022/11/23 04:05:06;;;;;;;4.05;1.40;;;9.50;91.60;;;;;;5116302;28;20053;-74
2022/11/23 04:07:32;;;;;;;11.88;2.28;;;9.60;91.60;;;;;;5115175;28;20028;-74
2022/11/23 04:09:57;;;;;;;10.32;2.63;;;9.50;91.50;;;;;;5116345;28;20017;-74
2022/11/23 04:12:24;;;;;;;10.13;2.30;;;9.50;91.60;;;;;;5115101;28;20045;-74
2022/11/23 04:14:50;;;;;;;6.57;1.60;;;9.50;91.50;;;;;;5115244;28;20021;-74
2022/11/23 04:17:15;;;;;;;6.72;1.50;;;9.50;91.40;;;;;;5116098;28;20032;-74
2022/11/23 04:19:41;;;;;;;5.13;1.85;;;9.50;91.50;;;;;;5115127;28;20092;-74
2022/11/23 04:22:07;;;;;;;9.20;1.63;;;9.50;91.40;;;;;;5114948;28;20043;-74
2022/11/23 04:24:32;;;;;;;10.00;1.90;;;9.50;91.40;;;;;;5115922;28;20028;-74
2022/11/23 04:26:58;;;;;;;8.65;1.85;;;9.60;91.50;;;;;;5115779;28;20036;-74
2022/11/23 04:29:23;;;;;;;10.88;2.30;;;9.60;91.40;;;;;;5114848;28;20028;-74
2022/11/23 04:31:49;;;;;;;7.43;2.88;;;9.50;91.30;;;;;;5114874;28;20024;-74
2022/11/23 04:34:14;;;;;;;11.07;2.40;;;9.50;91.20;;;;;;5115761;28;20032;-74
2022/11/23 04:36:40;;;;;;;18.65;2.50;;;9.60;91.30;;;;;;5114726;28;20054;-74
2022/11/23 04:39:06;;;;;;;7.57;1.92;;;9.60;91.60;;;;;;5115665;28;20043;-74
2022/11/23 04:41:31;;;;;;;7.78;1.42;;;9.50;91.20;;;;;;5115635;28;20080;-74
2022/11/23 04:43:57;;;;;;;4.20;1.58;;;9.50;91.30;;;;;;5114651;28;20083;-74
2022/11/23 04:46:23;;;;;;;3.72;1.52;;;9.50;91.30;;;;;;5115432;28;20042;-74
2022/11/23 04:48:48;;;;;;;4.55;1.75;;;9.50;91.30;;;;;;5114518;28;20031;-74
2022/11/23 04:51:15;;;;;;;10.00;1.90;;;9.50;91.30;;;;;;5115408;28;20035;-74
2022/11/23 04:53:41;;;;;;;7.68;1.38;;;9.50;91.30;;;;;;5114453;28;20076;-74
2022/11/23 04:56:07;;;;;;;9.25;1.95;;;9.50;91.20;;;;;;5115317;28;20094;-74
2022/11/23 04:58:32;;;;;;;6.53;1.95;;;9.50;91.20;;;;;;5115264;28;20028;-74
2022/11/23 05:00:58;;;;;;;7.10;2.50;;;9.50;91.10;;;;;;5115159;28;20020;-74
2022/11/23 05:03:24;;;;;;;11.85;1.98;;;9.50;91.00;;;;;;5115195;28;20024;-74
2022/11/23 05:05:50;;;;;;;8.18;2.22;;;9.50;91.10;;;;;;5115037;28;20062;-74
2022/11/23 05:08:15;;;;;;;7.30;1.67;;;9.50;91.00;;;;;;5115034;28;20074;-74
2022/11/23 05:10:42;;;;;;;12.55;2.13;;;9.40;91.00;;;;;;5115026;28;20020;-74
2022/11/23 05:13:08;;;;;;;6.53;2.00;;;9.50;91.00;;;;;;5113795;28;20068;-74
2022/11/23 05:15:33;;;;;;;3.80;1.83;;;9.40;90.80;;;;;;5114927;28;20039;-74
2022/11/23 05:18:05;;;;;;;3.90;1.48;;;9.40;90.90;;;;;;5114896;28;20096;-74
2022/11/23 05:20:31;;;;;;;12.68;1.75;;;9.50;90.90;;;;;;5114874;28;20032;-74
2022/11/23 05:22:56;;;;;;;7.53;1.73;;;9.50;90.80;;;;;;5114935;28;20031;-74
2022/11/23 05:25:22;;;;;;;6.05;1.77;;;9.50;90.80;;;;;;5113771;28;20044;-74
2022/11/23 05:27:48;;;;;;;10.43;1.90;;;9.40;90.70;;;;;;5114594;28;20043;-74
2022/11/23 05:30:13;;;;;;;8.95;1.65;;;9.40;90.60;;;;;;5114675;28;20008;-74
2022/11/23 05:32:39;;;;;;;6.47;1.45;;;9.40;90.80;;;;;;5113600;28;20369;-74
2022/11/23 05:35:05;;;;;;;8.90;2.00;;;9.40;90.80;;;;;;5113534;28;20024;-74
2022/11/23 05:37:33;;;;;;;7.72;1.83;;;9.40;90.60;;;;;;5114515;28;20020;-74
2022/11/23 05:39:59;;;;;;;4.75;1.75;;;9.40;90.50;;;;;;5113488;28;20039;-74
2022/11/23 05:42:24;;;;;;;8.60;2.25;;;9.40;90.60;;;;;;5113566;28;20027;-74
2022/11/23 05:44:50;;;;;;;5.82;1.40;;;9.40;90.50;;;;;;5114395;28;20024;-74
2022/11/23 05:47:16;;;;;;;6.28;1.35;;;9.40;90.50;;;;;;5114283;28;20047;-74
2022/11/23 05:49:42;;;;;;;8.98;2.10;;;9.40;90.30;;;;;;5114257;28;20023;-74
2022/11/23 05:52:08;;;;;;;5.70;1.60;;;9.40;90.30;;;;;;5114426;28;20047;-74
2022/11/23 05:54:33;;;;;;;6.60;1.60;;;9.40;90.10;;;;;;5114227;28;20028;-74
2022/11/23 05:56:59;;;;;;;8.07;1.85;;;9.30;90.10;;;;;;5114023;28;20058;-74
2022/11/23 05:59:24;;;;;;;8.60;1.63;;;9.30;90.10;;;;;;5113993;28;20047;-74
2022/11/23 06:01:51;;;;;;;8.00;1.77;;;9.30;90.10;;;;;;5114053;28;20107;-74
2022/11/23 06:04:16;;;;;;;5.93;1.63;;;9.40;89.90;;;;;;5114038;28;20111;-74
2022/11/23 06:06:42;;;;;;;5.50;1.63;;;9.30;90.00;;;;;;5112958;28;20039;-74
2022/11/23 06:09:07;;;;;;;5.65;1.48;;;9.30;90.10;;;;;;5113909;28;20044;-74
2022/11/23 06:11:34;;;;;;;6.82;1.40;;;9.30;90.00;;;;;;5112962;28;20044;-74
2022/11/23 06:14:00;;;;;;;7.18;2.10;;;9.30;89.80;;;;;;5113071;28;20019;-74
2022/11/23 06:16:25;;;;;;;6.95;2.08;;;9.20;90.10;;;;;;5113844;28;20031;-74
2022/11/23 06:18:51;;;;;;;7.60;1.20;;;9.20;90.10;;;;;;5113818;28;20158;-74
2022/11/23 06:21:17;;;;;;;15.93;1.75;;;9.20;89.90;;;;;;5113776;28;20077;-74
2022/11/23 06:23:43;;;;;;;4.28;1.40;;;9.20;89.90;;;;;;5113904;28;20123;-74
2022/11/23 06:26:08;;;;;;;7.57;1.45;;;9.20;90.00;;;;;;5112755;28;20039;-74
2022/11/23 06:28:35;;;;;;;3.75;1.20;;;9.20;89.90;;;;;;5113661;28;20024;-74
2022/11/23 06:31:04;;;;;;;8.60;1.83;;;9.20;89.80;;;;;;5113677;28;20023;-74
2022/11/23 06:33:29;;;;;;;6.70;1.38;;;9.20;90.00;;;;;;5113751;28;20028;-74
2022/11/23 06:35:58;;;;;;;7.57;1.85;;;9.20;89.80;;;;;;5113608;28;20028;-74
2022/11/23 06:38:24;;;;;;;7.20;1.63;;;9.20;89.90;;;;;;5113579;28;20020;-74
2022/11/23 06:40:49;;;;;;;6.47;1.63;;;9.20;89.90;;;;;;5095796;28;20100;-74
2022/11/23 06:43:15;;;;;;;8.77;1.92;;;9.20;90.10;;;;;;5113540;28;20035;-74
2022/11/23 06:45:41;;;;;;;11.35;2.00;;;9.20;90.10;;;;;;5113439;28;20490;-74
2022/11/23 06:48:07;;;;;;;7.03;1.50;;;9.20;90.10;;;;;;5113486;28;20047;-74
2022/11/23 06:50:33;;;;;;;14.38;1.58;;;9.20;90.10;;;;;;5112525;28;20031;-74
2022/11/23 06:52:58;;;;;;;10.65;1.80;;;9.10;90.10;;;;;;5112272;28;20028;-74
2022/11/23 06:55:24;;;;;;;9.05;1.55;;;9.20;90.20;;;;;;5112401;28;20044;-74
2022/11/23 06:57:51;;;;;;;7.03;1.55;;;9.20;90.20;;;;;;5113365;28;20027;-74
2022/11/23 07:00:18;;;;;;;2.78;1.13;;;9.20;90.20;;;;;;5113373;28;20028;-74
2022/11/23 07:02:43;;;;;;;7.95;1.77;;;9.20;90.10;;;;;;5112380;28;20023;-74
2022/11/23 07:05:09;;;;;;;5.68;1.83;;;9.20;90.10;;;;;;5113429;28;20028;-74
2022/11/23 07:07:35;;;;;;;8.60;1.38;;;9.20;90.10;;;;;;5113726;28;20050;-75
2022/11/23 07:10:00;;;;;;;12.55;2.22;;;9.10;90.10;;;;;;5117387;28;20032;-74
2022/11/23 07:12:26;;;;;;;8.45;1.92;;;9.20;90.10;;;;;;5099255;28;20055;-74
2022/11/23 07:14:52;;;;;;;8.02;1.48;;;9.20;90.20;;;;;;5117284;28;20158;-74
2022/11/23 07:17:17;;;;;;;8.63;1.40;;;9.20;90.20;;;;;;5117250;28;20036;-74
2022/11/23 07:19:43;;;;;;;6.75;1.20;;;9.20;90.20;;;;;;5117239;28;20054;-74
2022/11/23 07:22:09;;;;;;;7.15;0.98;;;9.20;90.00;;;;;;5116088;28;20058;-74
2022/11/23 07:24:34;;;;;;;7.63;2.03;;;9.20;90.00;;;;;;5117101;28;20032;-74
2022/11/23 07:27:00;;;;;;;11.85;1.50;;;9.20;90.10;;;;;;5116906;28;20036;-74
2022/11/23 07:29:45;;;;;;;9.57;1.48;;;9.20;89.90;;;;;;5117166;28;20033;-74
2022/11/23 07:32:13;;;;;;;11.15;1.70;;;9.20;90.00;;;;;;5117140;28;20039;-74
2022/11/23 07:34:39;;;;;;;5.60;1.48;;;9.20;89.90;;;;;;5116903;28;20012;-74
2022/11/23 07:37:04;;;;;;;8.52;1.25;;;9.20;89.80;;;;;;5099041;28;20039;-72
2022/11/23 07:39:30;;;;;;;5.85;1.45;;;9.20;89.80;;;;;;5116811;28;20054;-73
2022/11/23 07:41:56;;;;;;;7.90;1.63;;;9.20;89.40;;;;;;5115758;28;20107;-74
2022/11/23 07:44:22;;;;;;;10.05;1.67;;;9.20;89.70;;;;;;5116742;28;20039;-74
2022/11/23 07:46:47;;;;;;;5.15;1.77;;;9.20;89.40;;;;;;5116618;28;20051;-75
2022/11/23 07:49:16;;;;;;;9.32;2.28;;;9.20;88.90;;;;;;5115653;28;20051;-74
2022/11/23 07:51:42;;;;;;;9.75;2.08;;;9.20;88.60;;;;;;5098799;28;20021;-75
2022/11/23 07:54:08;;;;;;;10.98;1.35;;;9.20;88.40;;;;;;5116247;28;20035;-75
2022/11/23 07:56:34;;;;;;;9.90;1.33;;;9.20;88.10;;;;;;5116657;28;20047;-75
2022/11/23 07:58:59;;;;;;;3.83;0.90;;;9.10;88.20;;;;;;5116433;28;20055;-76
2022/11/23 08:01:25;;;;;;;6.50;1.35;;;9.10;87.90;;;;;;5115597;28;20053;-75
2022/11/23 08:03:51;;;;;;;4.85;1.45;;;9.10;87.90;;;;;;5116536;28;20017;-75
2022/11/23 08:06:16;;;;;;;11.85;1.67;;;9.10;87.90;;;;;;5116264;28;20074;-74
2022/11/23 08:08:42;;;;;;;6.32;1.70;;;9.10;87.70;;;;;;5116161;28;20036;-75
2022/11/23 08:11:09;;;;;;;4.18;1.38;;;9.10;87.70;;;;;;5116130;28;20028;-75
2022/11/23 08:13:38;;;;;;;8.25;1.40;;;9.20;87.30;;;;;;5116344;28;20020;-75
2022/11/23 08:16:04;;;;;;;5.10;1.58;;;9.30;86.80;;;;;;5115106;28;20046;-75
2022/11/23 08:18:30;;;;;;;6.68;1.83;;;9.40;86.30;;;;;;5115103;28;20032;-75
2022/11/23 08:20:59;;;;;;;12.00;2.33;;;9.40;85.80;;;;;;5115773;28;20114;-75
2022/11/23 08:23:25;;;;;;;6.57;1.85;;;9.50;85.90;;;;;;5115985;28;20027;-75
2022/11/23 08:25:50;;;;;;;9.05;2.08;;;9.50;85.20;;;;;;5115976;28;20034;-75
2022/11/23 08:28:16;;;;;;;6.40;2.08;;;9.60;85.30;;;;;;5115918;28;20032;-75
2022/11/23 08:30:42;;;;;;;11.75;2.33;;;9.50;84.90;;;;;;5115864;28;20084;-74
2022/11/23 08:33:11;;;;;;;8.45;2.00;;;9.80;84.80;;;;;;5116017;28;20097;-72
2022/11/23 08:35:39;;;;;;;13.05;1.77;;;9.90;83.60;;;;;;5116038;28;20043;-74
2022/11/23 08:38:06;;;;;;;2.80;0.80;;;10.10;82.90;;;;;;5115750;28;20028;-75
2022/11/23 08:40:32;;;;;;;6.60;1.40;;;10.30;81.80;;;;;;5115632;28;20064;-75
2022/11/23 08:42:58;;;;;;;7.63;1.50;;;10.60;80.70;;;;;;5115601;28;20020;-75
2022/11/23 08:45:23;;;;;;;12.15;2.00;;;10.80;79.40;;;;;;5114622;28;20059;-75
2022/11/23 08:47:50;;;;;;;5.63;1.20;;;11.00;78.30;;;;;;5115432;28;20039;-75
2022/11/23 08:50:16;;;;;;;4.75;1.58;;;11.20;77.80;;;;;;5115464;28;20052;-75
2022/11/23 08:52:41;;;;;;;7.97;1.40;;;11.30;76.70;;;;;;5115391;28;20024;-76
2022/11/23 08:55:08;;;;;;;5.75;1.88;;;11.50;75.90;;;;;;5115357;28;20024;-76
2022/11/23 08:57:34;;;;;;;9.80;1.88;;;11.50;74.70;;;;;;5115300;28;20028;-75
2022/11/23 08:59:59;;;;;;;6.15;1.38;;;11.70;75.20;;;;;;5115236;28;20067;-75
2022/11/23 09:02:25;;;;;;;4.68;1.73;;;11.80;74.40;;;;;;5115221;28;20028;-76
2022/11/23 09:04:50;;;;;;;6.75;1.42;;;11.80;73.80;;;;;;5115131;28;20035;-75
2022/11/23 09:07:16;;;;;;;11.90;1.80;;;12.00;74.60;;;;;;5115029;28;20032;-76
2022/11/23 09:09:42;;;;;;;10.50;1.40;;;12.10;72.30;;;;;;5114999;28;20031;-76
2022/11/23 09:12:07;;;;;;;4.50;1.08;;;12.20;73.60;;;;;;5114862;28;20052;-76
2022/11/23 09:14:33;;;;;;;6.05;2.17;;;12.30;71.70;;;;;;5113915;28;20028;-76
2022/11/23 09:17:02;;;;;;;10.35;1.50;;;12.50;71.30;;;;;;5113869;28;20095;-76
2022/11/23 09:19:28;;;;;;;3.45;0.95;;;12.40;70.40;;;;;;5114884;28;20024;-76
2022/11/23 09:21:54;;;;;;;4.40;1.10;;;12.60;70.20;;;;;;5113829;28;20039;-76
2022/11/23 09:24:19;;;;;;;6.03;1.73;;;12.60;69.90;;;;;;5113904;28;20032;-76
2022/11/23 09:26:45;;;;;;;5.82;1.45;;;12.60;70.10;;;;;;5114702;28;20032;-76
2022/11/23 09:29:11;;;;;;;9.43;1.52;;;12.70;69.70;;;;;;5113760;28;20020;-76
2022/11/23 09:31:37;;;;;;;7.85;1.55;;;12.80;69.70;;;;;;5113990;28;20066;-76
2022/11/23 09:34:03;;;;;;;4.00;1.00;;;12.90;69.30;;;;;;5114647;28;20050;-76
2022/11/23 09:36:29;;;;;;;6.32;2.13;;;12.90;67.80;;;;;;5114558;28;20505;-75
2022/11/23 09:38:55;;;;;;;7.13;1.52;;;12.70;68.40;;;;;;5114522;28;20028;-75
2022/11/23 09:41:44;;;;;;;6.32;1.70;;;12.50;69.50;;;;;;5114452;28;20032;-75
2022/11/23 09:44:34;;;;;;;6.28;0.93;;;12.50;70.00;;;;;;5114449;28;20034;-75
2022/11/23 09:47:08;;;;;;;5.88;1.70;;;12.30;69.80;;;;;;5114331;28;20024;-75
2022/11/23 09:50:10;;;;;;;7.95;1.13;;;12.10;71.00;;;;;;5113301;28;20471;-76
2022/11/23 09:52:41;;;;;;;5.68;1.63;;;11.80;71.30;;;;;;5114497;28;20016;-75
2022/11/23 09:55:36;;;;;;;2.95;0.57;;;11.60;72.90;;;;;;5114280;28;20030;-75
2022/11/23 09:58:04;;;;;;;6.88;0.70;;;11.60;71.50;;;;;;5113215;28;20024;-75
2022/11/23 10:00:37;;;;;;;3.50;1.23;;;11.50;72.30;;;;;;5114126;28;20082;-75
2022/11/23 10:03:04;;;;;;;5.88;1.10;;;11.40;73.00;;;;;;5114175;28;20017;-75
2022/11/23 10:05:37;;;;;;;3.20;0.70;;;11.40;73.40;;;;;;5113322;28;20100;-75
2022/11/23 10:09:00;;;;;;;3.05;1.08;;;11.30;73.20;;;;;;5115073;28;20017;-73
2022/11/23 10:11:45;;;;;;;;;;;11.10;73.60;;;;;;5028461;28;20109;-75
2022/11/23 10:14:47;;;;;;;3.65;1.02;;;11.00;73.60;;;;;;5017063;28;19928;-75
2022/11/23 10:17:22;;;;;;;3.92;1.10;;;11.00;74.50;;;;;;5101594;28;20143;-74
2022/11/23 10:20:12;;;;;;;9.20;1.17;;;11.00;75.40;;;;;;5113856;28;20024;-75
2022/11/23 10:22:58;;;;;;;7.35;1.50;;;11.00;75.00;;;;;;5113986;28;20028;-75
2022/11/23 10:25:26;;;;;;;5.90;1.20;;;10.90;74.70;;;;;;5113979;28;20027;-75
2022/11/23 10:27:59;;;;;;;10.10;1.77;;;10.90;74.20;;;;;;5113616;28;20043;-75
2022/11/23 10:30:24;;;;;;;6.10;1.15;;;10.90;75.20;;;;;;5113751;28;20039;-75
2022/11/23 10:32:56;;;;;;;7.10;1.08;;;11.00;75.00;;;;;;5113688;28;20035;-75
2022/11/23 10:35:34;;;;;;;5.50;1.13;;;11.00;75.20;;;;;;5113832;28;20035;-75
2022/11/23 10:38:10;;;;;;;5.20;1.10;;;11.00;74.40;;;;;;5113622;28;20020;-74
2022/11/23 10:40:39;;;;;;;6.47;1.23;;;11.00;75.10;;;;;;5113654;28;20028;-74
2022/11/23 10:43:24;;;;;;;5.45;0.77;;;11.10;75.00;;;;;;5112764;28;20083;-74
2022/11/23 10:45:49;;;;;;;5.70;0.65;;;11.20;73.60;;;;;;5113636;28;20027;-74
2022/11/23 10:48:35;;;;;;;7.07;1.17;;;11.20;73.60;;;;;;5112595;28;20028;-74
2022/11/23 10:51:22;;;;;;;4.35;1.30;;;11.20;75.60;;;;;;5113462;28;20355;-75
2022/11/23 10:54:00;;;;;;;5.47;1.23;;;11.30;74.60;;;;;;5113596;28;20024;-74
2022/11/23 10:56:27;;;;;;;3.25;0.95;;;11.40;73.30;;;;;;5113567;28;20049;-74
2022/11/23 10:58:53;;;;;;;5.72;1.08;;;11.40;74.10;;;;;;5112541;28;20020;-74
2022/11/23 11:01:23;;;;;;;5.05;0.88;;;11.30;74.40;;;;;;5111474;28;20091;-74
2022/11/23 11:03:52;;;;;;;5.57;1.10;;;11.40;73.70;;;;;;5112274;28;20024;-74
2022/11/23 11:06:23;;;;;;;4.28;1.42;;;11.40;74.80;;;;;;5113366;28;20024;-75
2022/11/23 11:08:53;;;;;;;7.18;1.58;;;11.40;73.70;;;;;;5112923;28;20024;-75
2022/11/23 11:11:44;;;;;;;7.30;1.30;;;11.50;74.50;;;;;;5113316;28;20028;-75
2022/11/23 11:14:18;;;;;;;2.88;0.60;;;11.60;74.40;;;;;;5113305;28;20032;-75
2022/11/23 11:16:51;;;;;;;4.32;1.08;;;11.60;73.30;;;;;;5113382;28;20043;-75
2022/11/23 11:19:33;;;;;;;4.90;1.13;;;11.60;72.80;;;;;;5113242;28;20061;-75
2022/11/23 11:22:18;;;;;;;4.82;1.02;;;11.50;73.00;;;;;;5113365;28;20027;-75
2022/11/23 11:24:46;;;;;;;6.05;1.20;;;11.50;73.30;;;;;;5113259;28;20050;-75
2022/11/23 11:27:19;;;;;;;2.45;0.65;;;11.50;72.30;;;;;;5112102;28;20107;-75
2022/11/23 11:29:44;;;;;;;5.70;1.42;;;11.50;73.90;;;;;;5113199;28;20021;-75
2022/11/23 11:32:25;;;;;;;4.55;0.98;;;11.60;72.00;;;;;;5113116;28;20076;-75
2022/11/23 11:35:11;;;;;;;3.58;1.10;;;11.60;73.50;;;;;;5113283;28;20024;-75
2022/11/23 11:37:45;;;;;;;6.50;1.20;;;11.70;73.30;;;;;;5113242;28;20029;-75
2022/11/23 11:40:32;;;;;;;2.25;0.65;;;11.70;72.20;;;;;;5113033;28;20032;-75
2022/11/23 11:43:15;;;;;;;5.38;0.90;;;11.80;71.60;;;;;;5111970;28;20031;-75
2022/11/23 11:45:44;;;;;;;5.45;0.90;;;11.90;71.90;;;;;;5113177;28;20028;-75
2022/11/23 11:48:32;;;;;;;5.90;1.25;;;11.90;70.40;;;;;;5112920;28;20028;-75
2022/11/23 11:51:09;;;;;;;3.90;0.60;;;11.90;72.10;;;;;;5111925;28;20024;-75
2022/11/23 11:53:40;;;;;;;3.65;0.73;;;11.90;71.10;;;;;;5114341;28;20099;-75
2022/11/23 11:56:21;;;;;;;7.15;1.48;;;11.70;72.20;;;;;;5116716;28;20051;-75
2022/11/23 11:59:17;;;;;;;3.92;0.70;;;11.70;71.20;;;;;;5115645;28;20118;-75
2022/11/23 12:01:49;;;;;;;3.80;0.68;;;11.60;71.70;;;;;;5098987;28;20043;-75
2022/11/23 12:04:26;;;;;;;4.00;0.80;;;11.60;70.70;;;;;;5115437;28;20028;-75
2022/11/23 12:07:03;;;;;;;3.25;0.75;;;11.70;71.30;;;;;;5116325;28;20020;-75
2022/11/23 12:09:33;;;;;;;3.78;0.90;;;11.70;71.50;;;;;;5116251;28;20038;-75
2022/11/23 12:11:59;;;;;;;8.05;1.05;;;11.90;71.90;;;;;;5116077;28;20455;-76
2022/11/23 12:14:25;;;;;;;3.53;1.17;;;12.10;70.70;;;;;;5115320;28;20024;-75
2022/11/23 12:17:28;;;;;;;3.85;1.17;;;12.10;69.60;;;;;;5116139;28;20032;-75
2022/11/23 12:20:16;;;;;;;0.82;0.20;;;12.10;71.10;;;;;;5115945;28;20509;-75
2022/11/23 12:22:51;;;;;;;2.10;0.60;;;12.10;69.60;;;;;;5068218;28;20095;-75
2022/11/23 12:25:32;;;;;;;7.68;0.90;;;12.10;70.80;;;;;;5116191;28;20494;-75
2022/11/23 12:28:27;;;;;;;5.80;0.98;;;12.10;69.70;;;;;;5115935;28;20028;-75
2022/11/23 12:31:43;;;;;;;4.18;0.93;;;12.00;68.80;;;;;;5115054;28;20027;-75
2022/11/23 12:34:36;;;;;;;2.80;0.77;;;12.00;69.70;;;;;;5111704;28;20055;-75
2022/11/23 12:37:23;;;;;;;4.07;0.85;;;12.00;70.10;;;;;;5115819;28;20024;-75
2022/11/23 12:40:17;;;;;;;3.92;0.77;;;12.00;68.60;;;;;;5115706;28;20087;-75
2022/11/23 12:42:48;;;;;;;2.92;0.73;;;12.00;71.10;;;;;;5115718;28;20058;-75
2022/11/23 12:45:22;;;;;;;3.60;0.70;;;12.10;71.40;;;;;;5115683;28;20050;-75
2022/11/23 12:48:06;;;;;;;6.43;0.95;;;12.10;69.00;;;;;;5114513;28;20043;-75
2022/11/23 12:50:55;;;;;;;2.90;0.57;;;12.10;69.10;;;;;;5115504;28;20024;-75
2022/11/23 12:53:39;;;;;;;2.78;0.60;;;12.10;69.30;;;;;;5077681;28;20028;-75
2022/11/23 12:56:30;;;;;;;3.28;0.60;;;12.20;68.50;;;;;;5114401;28;20556;-75
2022/11/23 12:58:57;;;;;;;1.67;0.52;;;12.10;68.10;;;;;;5115445;28;20023;-75
2022/11/23 13:01:31;;;;;;;1.88;0.40;;;12.10;68.30;;;;;;5115312;28;20024;-75
2022/11/23 13:04:28;;;;;;;1.38;0.50;;;12.10;68.70;;;;;;5115265;28;20031;-75
2022/11/23 13:07:20;;;;;;;1.60;0.40;;;12.10;69.10;;;;;;5115031;28;20045;-75